sensor_id;sensor_type;location;lat;lon;timestamp;P1;durP1;ratioP1;P2;durP2;ratioP2
1691;SDS011;843;52.054;8.552;2023-01-24T00:00:52;15.10;;;10.67;;
1691;SDS011;843;52.054;8.552;2023-01-24T00:03:19;19.80;;;11.60;;
1691;SDS011;843;52.054;8.552;2023-01-24T00:05:47;15.30;;;10.83;;
1691;SDS011;843;52.054;8.552;2023-01-24T00:08:15;17.53;;;10.80;;
1691;SDS011;843;52.054;8.552;2023-01-24T00:10:45;16.90;;;11.03;;
1691;SDS011;843;52.054;8.552;2023-01-24T00:13:13;16.43;;;10.73;;
1691;SDS011;843;52.054;8.552;2023-01-24T00:15:40;14.13;;;10.27;;
1691;SDS011;843;52.054;8.552;2023-01-24T00:18:07;16.10;;;11.90;;
1691;SDS011;843;52.054;8.552;2023-01-24T00:20:34;14.73;;;10.93;;
1691;SDS011;843;52.054;8.552;2023-01-24T00:23:01;19.20;;;11.83;;
1691;SDS011;843;52.054;8.552;2023-01-24T00:25:27;15.23;;;11.00;;
1691;SDS011;843;52.054;8.552;2023-01-24T00:27:54;17.97;;;11.67;;
1691;SDS011;843;52.054;8.552;2023-01-24T00:30:22;19.37;;;13.17;;
1691;SDS011;843;52.054;8.552;2023-01-24T00:32:49;18.00;;;11.50;;
1691;SDS011;843;52.054;8.552;2023-01-24T00:35:15;18.70;;;12.23;;
1691;SDS011;843;52.054;8.552;2023-01-24T00:37:42;17.00;;;11.97;;
1691;SDS011;843;52.054;8.552;2023-01-24T00:40:09;19.30;;;11.97;;
1691;SDS011;843;52.054;8.552;2023-01-24T00:42:36;19.70;;;12.97;;
1691;SDS011;843;52.054;8.552;2023-01-24T00:45:03;17.50;;;11.03;;
1691;SDS011;843;52.054;8.552;2023-01-24T00:47:32;17.77;;;11.80;;
1691;SDS011;843;52.054;8.552;2023-01-24T00:49:59;19.57;;;10.83;;
1691;SDS011;843;52.054;8.552;2023-01-24T00:52:25;18.70;;;11.27;;
1691;SDS011;843;52.054;8.552;2023-01-24T00:54:52;16.97;;;10.80;;
1691;SDS011;843;52.054;8.552;2023-01-24T00:57:19;19.30;;;11.60;;
1691;SDS011;843;52.054;8.552;2023-01-24T00:59:46;20.97;;;11.47;;
1691;SDS011;843;52.054;8.552;2023-01-24T01:02:13;20.23;;;12.30;;
1691;SDS011;843;52.054;8.552;2023-01-24T01:04:41;19.83;;;12.97;;
1691;SDS011;843;52.054;8.552;2023-01-24T01:07:07;19.60;;;13.17;;
1691;SDS011;843;52.054;8.552;2023-01-24T01:09:34;22.97;;;13.10;;
1691;SDS011;843;52.054;8.552;2023-01-24T01:12:01;20.40;;;12.27;;
1691;SDS011;843;52.054;8.552;2023-01-24T01:14:27;18.27;;;12.50;;
1691;SDS011;843;52.054;8.552;2023-01-24T01:16:54;18.23;;;11.17;;
1691;SDS011;843;52.054;8.552;2023-01-24T01:19:21;15.50;;;10.07;;
1691;SDS011;843;52.054;8.552;2023-01-24T01:21:49;15.93;;;10.33;;
1691;SDS011;843;52.054;8.552;2023-01-24T01:24:15;18.27;;;11.60;;
1691;SDS011;843;52.054;8.552;2023-01-24T01:26:42;15.80;;;11.10;;
1691;SDS011;843;52.054;8.552;2023-01-24T01:29:09;18.93;;;11.23;;
1691;SDS011;843;52.054;8.552;2023-01-24T01:31:36;15.40;;;10.50;;
1691;SDS011;843;52.054;8.552;2023-01-24T01:34:03;14.40;;;10.67;;
1691;SDS011;843;52.054;8.552;2023-01-24T01:36:30;14.73;;;8.80;;
1691;SDS011;843;52.054;8.552;2023-01-24T01:38:58;14.63;;;11.10;;
1691;SDS011;843;52.054;8.552;2023-01-24T01:41:24;9.93;;;7.80;;
1691;SDS011;843;52.054;8.552;2023-01-24T01:43:51;10.07;;;7.47;;
1691;SDS011;843;52.054;8.552;2023-01-24T01:46:36;10.80;;;7.30;;
1691;SDS011;843;52.054;8.552;2023-01-24T01:49:04;10.20;;;7.00;;
1691;SDS011;843;52.054;8.552;2023-01-24T01:51:42;9.50;;;7.13;;
1691;SDS011;843;52.054;8.552;2023-01-24T01:54:13;9.10;;;5.90;;
1691;SDS011;843;52.054;8.552;2023-01-24T01:56:42;9.90;;;7.20;;
1691;SDS011;843;52.054;8.552;2023-01-24T01:59:11;9.97;;;7.50;;
1691;SDS011;843;52.054;8.552;2023-01-24T02:01:41;10.93;;;8.70;;
1691;SDS011;843;52.054;8.552;2023-01-24T02:04:10;11.40;;;7.60;;
1691;SDS011;843;52.054;8.552;2023-01-24T02:06:42;10.20;;;6.93;;
1691;SDS011;843;52.054;8.552;2023-01-24T02:09:18;12.33;;;8.00;;
1691;SDS011;843;52.054;8.552;2023-01-24T02:11:46;12.60;;;7.73;;
1691;SDS011;843;52.054;8.552;2023-01-24T02:14:14;9.80;;;7.63;;
1691;SDS011;843;52.054;8.552;2023-01-24T02:17:01;10.47;;;8.10;;
1691;SDS011;843;52.054;8.552;2023-01-24T02:19:37;9.83;;;6.20;;
1691;SDS011;843;52.054;8.552;2023-01-24T02:22:12;8.50;;;6.00;;
1691;SDS011;843;52.054;8.552;2023-01-24T02:24:44;11.70;;;6.80;;
1691;SDS011;843;52.054;8.552;2023-01-24T02:27:15;10.03;;;7.00;;
1691;SDS011;843;52.054;8.552;2023-01-24T02:29:42;10.10;;;7.57;;
1691;SDS011;843;52.054;8.552;2023-01-24T02:32:09;10.43;;;7.10;;
1691;SDS011;843;52.054;8.552;2023-01-24T02:34:38;12.63;;;8.67;;
1691;SDS011;843;52.054;8.552;2023-01-24T02:37:05;11.90;;;6.90;;
1691;SDS011;843;52.054;8.552;2023-01-24T02:39:38;9.43;;;6.90;;
1691;SDS011;843;52.054;8.552;2023-01-24T02:42:10;12.03;;;8.50;;
1691;SDS011;843;52.054;8.552;2023-01-24T02:44:42;11.47;;;7.37;;
1691;SDS011;843;52.054;8.552;2023-01-24T02:47:11;10.10;;;7.73;;
1691;SDS011;843;52.054;8.552;2023-01-24T02:49:38;11.60;;;7.30;;
1691;SDS011;843;52.054;8.552;2023-01-24T02:52:05;15.50;;;8.13;;
1691;SDS011;843;52.054;8.552;2023-01-24T02:54:50;9.40;;;8.03;;
1691;SDS011;843;52.054;8.552;2023-01-24T02:57:17;9.83;;;7.43;;
1691;SDS011;843;52.054;8.552;2023-01-24T03:00:03;7.93;;;6.50;;
1691;SDS011;843;52.054;8.552;2023-01-24T03:02:31;9.70;;;6.83;;
1691;SDS011;843;52.054;8.552;2023-01-24T03:04:58;12.20;;;8.30;;
1691;SDS011;843;52.054;8.552;2023-01-24T03:07:24;10.80;;;6.93;;
1691;SDS011;843;52.054;8.552;2023-01-24T03:09:51;9.63;;;6.70;;
1691;SDS011;843;52.054;8.552;2023-01-24T03:12:18;12.30;;;8.57;;
1691;SDS011;843;52.054;8.552;2023-01-24T03:15:04;9.63;;;7.03;;
1691;SDS011;843;52.054;8.552;2023-01-24T03:17:49;9.80;;;7.20;;
1691;SDS011;843;52.054;8.552;2023-01-24T03:20:33;10.60;;;7.23;;
1691;SDS011;843;52.054;8.552;2023-01-24T03:23:17;11.60;;;7.53;;
1691;SDS011;843;52.054;8.552;2023-01-24T03:26:01;7.73;;;6.07;;
1691;SDS011;843;52.054;8.552;2023-01-24T03:28:46;11.40;;;8.37;;
1691;SDS011;843;52.054;8.552;2023-01-24T03:31:31;10.10;;;7.23;;
1691;SDS011;843;52.054;8.552;2023-01-24T03:34:15;11.07;;;7.63;;
1691;SDS011;843;52.054;8.552;2023-01-24T03:36:57;10.00;;;7.17;;
1691;SDS011;843;52.054;8.552;2023-01-24T03:39:24;10.40;;;7.80;;
1691;SDS011;843;52.054;8.552;2023-01-24T03:42:09;11.07;;;7.73;;
1691;SDS011;843;52.054;8.552;2023-01-24T03:44:36;9.40;;;7.67;;
1691;SDS011;843;52.054;8.552;2023-01-24T03:47:04;10.90;;;7.20;;
1691;SDS011;843;52.054;8.552;2023-01-24T03:49:31;12.53;;;8.80;;
1691;SDS011;843;52.054;8.552;2023-01-24T03:52:15;11.17;;;7.80;;
1691;SDS011;843;52.054;8.552;2023-01-24T03:54:51;11.40;;;7.40;;
1691;SDS011;843;52.054;8.552;2023-01-24T03:57:18;10.90;;;8.23;;
1691;SDS011;843;52.054;8.552;2023-01-24T03:59:45;12.80;;;8.40;;
1691;SDS011;843;52.054;8.552;2023-01-24T04:02:13;11.30;;;8.33;;
1691;SDS011;843;52.054;8.552;2023-01-24T04:04:40;11.13;;;7.80;;
1691;SDS011;843;52.054;8.552;2023-01-24T04:07:23;13.20;;;8.83;;
1691;SDS011;843;52.054;8.552;2023-01-24T04:09:50;11.00;;;8.20;;
1691;SDS011;843;52.054;8.552;2023-01-24T04:12:17;15.83;;;9.17;;
1691;SDS011;843;52.054;8.552;2023-01-24T04:14:43;14.03;;;8.97;;
1691;SDS011;843;52.054;8.552;2023-01-24T04:17:10;11.60;;;7.90;;
1691;SDS011;843;52.054;8.552;2023-01-24T04:19:38;11.57;;;7.87;;
1691;SDS011;843;52.054;8.552;2023-01-24T04:22:05;12.93;;;9.57;;
1691;SDS011;843;52.054;8.552;2023-01-24T04:24:32;11.83;;;8.13;;
1691;SDS011;843;52.054;8.552;2023-01-24T04:26:58;14.03;;;9.20;;
1691;SDS011;843;52.054;8.552;2023-01-24T04:29:25;11.37;;;8.47;;
1691;SDS011;843;52.054;8.552;2023-01-24T04:31:51;14.03;;;9.53;;
1691;SDS011;843;52.054;8.552;2023-01-24T04:34:18;15.80;;;10.07;;
1691;SDS011;843;52.054;8.552;2023-01-24T04:36:46;12.87;;;9.23;;
1691;SDS011;843;52.054;8.552;2023-01-24T04:39:13;11.53;;;7.80;;
1691;SDS011;843;52.054;8.552;2023-01-24T04:41:40;12.57;;;9.37;;
1691;SDS011;843;52.054;8.552;2023-01-24T04:44:06;11.20;;;8.07;;
1691;SDS011;843;52.054;8.552;2023-01-24T04:46:33;13.17;;;9.40;;
1691;SDS011;843;52.054;8.552;2023-01-24T04:49:00;13.83;;;9.17;;
1691;SDS011;843;52.054;8.552;2023-01-24T04:51:26;12.60;;;8.90;;
1691;SDS011;843;52.054;8.552;2023-01-24T04:53:55;11.43;;;9.03;;
1691;SDS011;843;52.054;8.552;2023-01-24T04:56:22;14.57;;;10.20;;
1691;SDS011;843;52.054;8.552;2023-01-24T04:58:48;12.03;;;8.97;;
1691;SDS011;843;52.054;8.552;2023-01-24T05:01:15;14.30;;;9.20;;
1691;SDS011;843;52.054;8.552;2023-01-24T05:03:42;11.53;;;8.60;;
1691;SDS011;843;52.054;8.552;2023-01-24T05:06:08;11.90;;;8.30;;
1691;SDS011;843;52.054;8.552;2023-01-24T05:08:35;11.90;;;8.70;;
1691;SDS011;843;52.054;8.552;2023-01-24T05:11:03;13.40;;;8.60;;
1691;SDS011;843;52.054;8.552;2023-01-24T05:13:30;13.73;;;9.50;;
1691;SDS011;843;52.054;8.552;2023-01-24T05:15:57;13.33;;;9.97;;
1691;SDS011;843;52.054;8.552;2023-01-24T05:18:24;13.40;;;9.30;;
1691;SDS011;843;52.054;8.552;2023-01-24T05:20:50;13.90;;;9.63;;
1691;SDS011;843;52.054;8.552;2023-01-24T05:23:17;13.50;;;9.20;;
1691;SDS011;843;52.054;8.552;2023-01-24T05:25:45;16.97;;;9.83;;
1691;SDS011;843;52.054;8.552;2023-01-24T05:28:14;13.90;;;8.93;;
1691;SDS011;843;52.054;8.552;2023-01-24T05:30:41;11.80;;;10.00;;
1691;SDS011;843;52.054;8.552;2023-01-24T05:33:07;11.70;;;8.93;;
1691;SDS011;843;52.054;8.552;2023-01-24T05:35:34;14.40;;;10.43;;
1691;SDS011;843;52.054;8.552;2023-01-24T05:38:01;13.87;;;9.60;;
1691;SDS011;843;52.054;8.552;2023-01-24T05:40:27;13.77;;;9.10;;
1691;SDS011;843;52.054;8.552;2023-01-24T05:42:54;11.23;;;9.13;;
1691;SDS011;843;52.054;8.552;2023-01-24T05:45:22;12.67;;;8.77;;
1691;SDS011;843;52.054;8.552;2023-01-24T05:47:49;12.93;;;9.03;;
1691;SDS011;843;52.054;8.552;2023-01-24T05:50:15;13.80;;;9.57;;
1691;SDS011;843;52.054;8.552;2023-01-24T05:52:42;12.90;;;9.00;;
1691;SDS011;843;52.054;8.552;2023-01-24T05:55:09;12.93;;;8.00;;
1691;SDS011;843;52.054;8.552;2023-01-24T05:57:35;13.50;;;9.17;;
1691;SDS011;843;52.054;8.552;2023-01-24T06:00:03;11.33;;;9.10;;
1691;SDS011;843;52.054;8.552;2023-01-24T06:02:31;12.87;;;9.87;;
1691;SDS011;843;52.054;8.552;2023-01-24T06:04:58;15.23;;;10.33;;
1691;SDS011;843;52.054;8.552;2023-01-24T06:07:25;13.40;;;9.50;;
1691;SDS011;843;52.054;8.552;2023-01-24T06:09:51;15.10;;;10.50;;
1691;SDS011;843;52.054;8.552;2023-01-24T06:12:18;14.80;;;9.23;;
1691;SDS011;843;52.054;8.552;2023-01-24T06:14:45;11.53;;;9.07;;
1691;SDS011;843;52.054;8.552;2023-01-24T06:17:11;13.17;;;9.70;;
1691;SDS011;843;52.054;8.552;2023-01-24T06:19:40;11.17;;;9.37;;
1691;SDS011;843;52.054;8.552;2023-01-24T06:22:09;9.50;;;7.93;;
1691;SDS011;843;52.054;8.552;2023-01-24T06:24:43;12.63;;;9.30;;
1691;SDS011;843;52.054;8.552;2023-01-24T06:27:10;12.20;;;9.33;;
1691;SDS011;843;52.054;8.552;2023-01-24T06:29:37;11.50;;;8.90;;
1691;SDS011;843;52.054;8.552;2023-01-24T06:32:05;12.13;;;9.07;;
1691;SDS011;843;52.054;8.552;2023-01-24T06:37:30;14.10;;;9.50;;
1691;SDS011;843;52.054;8.552;2023-01-24T06:39:59;11.37;;;8.37;;
1691;SDS011;843;52.054;8.552;2023-01-24T06:42:26;13.37;;;10.97;;
1691;SDS011;843;52.054;8.552;2023-01-24T06:44:53;16.20;;;9.93;;
1691;SDS011;843;52.054;8.552;2023-01-24T06:47:20;13.37;;;10.23;;
1691;SDS011;843;52.054;8.552;2023-01-24T06:49:48;18.50;;;11.60;;
1691;SDS011;843;52.054;8.552;2023-01-24T06:52:16;15.53;;;11.43;;
1691;SDS011;843;52.054;8.552;2023-01-24T06:54:43;13.70;;;9.50;;
1691;SDS011;843;52.054;8.552;2023-01-24T06:57:10;12.60;;;8.83;;
1691;SDS011;843;52.054;8.552;2023-01-24T06:59:37;12.47;;;9.30;;
1691;SDS011;843;52.054;8.552;2023-01-24T07:02:03;14.40;;;9.73;;
1691;SDS011;843;52.054;8.552;2023-01-24T07:04:30;15.10;;;12.07;;
1691;SDS011;843;52.054;8.552;2023-01-24T07:06:57;12.27;;;9.97;;
1691;SDS011;843;52.054;8.552;2023-01-24T07:09:25;19.20;;;10.40;;
1691;SDS011;843;52.054;8.552;2023-01-24T07:11:53;13.57;;;10.70;;
1691;SDS011;843;52.054;8.552;2023-01-24T07:14:22;13.43;;;9.97;;
1691;SDS011;843;52.054;8.552;2023-01-24T07:16:49;15.10;;;10.80;;
1691;SDS011;843;52.054;8.552;2023-01-24T07:19:17;13.83;;;10.17;;
1691;SDS011;843;52.054;8.552;2023-01-24T07:21:46;19.30;;;10.60;;
1691;SDS011;843;52.054;8.552;2023-01-24T07:24:15;13.90;;;10.50;;
1691;SDS011;843;52.054;8.552;2023-01-24T07:26:44;15.80;;;10.30;;
1691;SDS011;843;52.054;8.552;2023-01-24T07:29:13;13.60;;;11.10;;
1691;SDS011;843;52.054;8.552;2023-01-24T07:31:40;12.77;;;9.07;;
1691;SDS011;843;52.054;8.552;2023-01-24T07:34:06;15.30;;;10.10;;
1691;SDS011;843;52.054;8.552;2023-01-24T07:36:34;14.23;;;10.00;;
1691;SDS011;843;52.054;8.552;2023-01-24T07:39:00;15.00;;;11.10;;
1691;SDS011;843;52.054;8.552;2023-01-24T07:41:27;15.33;;;10.60;;
1691;SDS011;843;52.054;8.552;2023-01-24T07:43:56;16.33;;;11.80;;
1691;SDS011;843;52.054;8.552;2023-01-24T07:46:22;13.90;;;10.37;;
1691;SDS011;843;52.054;8.552;2023-01-24T07:48:49;12.13;;;8.43;;
1691;SDS011;843;52.054;8.552;2023-01-24T07:51:16;12.40;;;9.63;;
1691;SDS011;843;52.054;8.552;2023-01-24T07:53:42;12.87;;;9.27;;
1691;SDS011;843;52.054;8.552;2023-01-24T07:56:09;10.87;;;7.93;;
1691;SDS011;843;52.054;8.552;2023-01-24T07:58:36;12.00;;;9.07;;
1691;SDS011;843;52.054;8.552;2023-01-24T08:01:04;12.30;;;9.13;;
1691;SDS011;843;52.054;8.552;2023-01-24T08:03:31;13.10;;;9.83;;
1691;SDS011;843;52.054;8.552;2023-01-24T08:05:58;13.10;;;8.90;;
1691;SDS011;843;52.054;8.552;2023-01-24T08:08:25;12.23;;;9.00;;
1691;SDS011;843;52.054;8.552;2023-01-24T08:10:52;11.43;;;7.83;;
1691;SDS011;843;52.054;8.552;2023-01-24T08:13:18;10.50;;;8.23;;
1691;SDS011;843;52.054;8.552;2023-01-24T08:15:47;12.17;;;7.10;;
1691;SDS011;843;52.054;8.552;2023-01-24T08:18:15;12.60;;;8.30;;
1691;SDS011;843;52.054;8.552;2023-01-24T08:20:42;10.83;;;7.67;;
1691;SDS011;843;52.054;8.552;2023-01-24T08:23:09;10.07;;;8.60;;
1691;SDS011;843;52.054;8.552;2023-01-24T08:25:36;10.37;;;7.80;;
1691;SDS011;843;52.054;8.552;2023-01-24T08:28:03;11.57;;;8.10;;
1691;SDS011;843;52.054;8.552;2023-01-24T08:30:30;10.57;;;8.50;;
1691;SDS011;843;52.054;8.552;2023-01-24T08:33:00;8.90;;;7.43;;
1691;SDS011;843;52.054;8.552;2023-01-24T08:35:28;11.00;;;7.80;;
1691;SDS011;843;52.054;8.552;2023-01-24T08:37:56;12.00;;;7.63;;
1691;SDS011;843;52.054;8.552;2023-01-24T08:40:22;11.20;;;7.10;;
1691;SDS011;843;52.054;8.552;2023-01-24T08:42:49;8.57;;;6.67;;
1691;SDS011;843;52.054;8.552;2023-01-24T08:45:16;9.53;;;7.10;;
1691;SDS011;843;52.054;8.552;2023-01-24T08:47:43;8.93;;;6.50;;
1691;SDS011;843;52.054;8.552;2023-01-24T08:50:10;7.60;;;6.80;;
1691;SDS011;843;52.054;8.552;2023-01-24T08:52:41;9.13;;;6.67;;
1691;SDS011;843;52.054;8.552;2023-01-24T08:55:08;8.80;;;6.90;;
1691;SDS011;843;52.054;8.552;2023-01-24T08:57:35;9.23;;;7.20;;
1691;SDS011;843;52.054;8.552;2023-01-24T09:00:02;14.93;;;8.23;;
1691;SDS011;843;52.054;8.552;2023-01-24T09:02:29;8.60;;;6.10;;
1691;SDS011;843;52.054;8.552;2023-01-24T09:04:57;11.00;;;7.40;;
1691;SDS011;843;52.054;8.552;2023-01-24T09:07:24;9.60;;;7.60;;
1691;SDS011;843;52.054;8.552;2023-01-24T09:09:52;11.93;;;7.20;;
1691;SDS011;843;52.054;8.552;2023-01-24T09:12:18;10.67;;;8.30;;
1691;SDS011;843;52.054;8.552;2023-01-24T09:14:45;10.00;;;7.60;;
1691;SDS011;843;52.054;8.552;2023-01-24T09:17:12;10.73;;;8.27;;
1691;SDS011;843;52.054;8.552;2023-01-24T09:19:39;10.80;;;8.30;;
1691;SDS011;843;52.054;8.552;2023-01-24T09:22:05;12.00;;;7.63;;
1691;SDS011;843;52.054;8.552;2023-01-24T09:24:32;10.80;;;7.80;;
1691;SDS011;843;52.054;8.552;2023-01-24T09:27:00;10.00;;;7.33;;
1691;SDS011;843;52.054;8.552;2023-01-24T09:29:27;10.03;;;6.80;;
1691;SDS011;843;52.054;8.552;2023-01-24T09:31:54;10.07;;;8.00;;
1691;SDS011;843;52.054;8.552;2023-01-24T09:34:21;10.17;;;8.03;;
1691;SDS011;843;52.054;8.552;2023-01-24T09:36:47;13.10;;;8.70;;
1691;SDS011;843;52.054;8.552;2023-01-24T09:39:15;11.20;;;7.90;;
1691;SDS011;843;52.054;8.552;2023-01-24T09:41:44;10.93;;;7.97;;
1691;SDS011;843;52.054;8.552;2023-01-24T09:44:21;9.70;;;7.43;;
1691;SDS011;843;52.054;8.552;2023-01-24T09:46:50;10.07;;;8.30;;
1691;SDS011;843;52.054;8.552;2023-01-24T09:49:21;13.40;;;9.20;;
1691;SDS011;843;52.054;8.552;2023-01-24T09:51:51;9.97;;;7.60;;
1691;SDS011;843;52.054;8.552;2023-01-24T09:54:21;10.80;;;8.00;;
1691;SDS011;843;52.054;8.552;2023-01-24T09:56:55;11.70;;;9.60;;
1691;SDS011;843;52.054;8.552;2023-01-24T09:59:26;10.10;;;7.50;;
1691;SDS011;843;52.054;8.552;2023-01-24T10:01:59;10.93;;;8.53;;
1691;SDS011;843;52.054;8.552;2023-01-24T10:04:28;11.87;;;7.80;;
1691;SDS011;843;52.054;8.552;2023-01-24T10:07:04;12.37;;;8.67;;
1691;SDS011;843;52.054;8.552;2023-01-24T10:09:44;10.30;;;7.90;;
1691;SDS011;843;52.054;8.552;2023-01-24T10:12:22;10.50;;;6.60;;
1691;SDS011;843;52.054;8.552;2023-01-24T10:14:59;8.60;;;6.70;;
1691;SDS011;843;52.054;8.552;2023-01-24T10:17:37;8.07;;;6.50;;
1691;SDS011;843;52.054;8.552;2023-01-24T10:20:15;7.83;;;5.53;;
1691;SDS011;843;52.054;8.552;2023-01-24T10:22:53;8.97;;;6.87;;
1691;SDS011;843;52.054;8.552;2023-01-24T10:25:27;8.40;;;5.93;;
1691;SDS011;843;52.054;8.552;2023-01-24T10:27:56;8.07;;;6.60;;
1691;SDS011;843;52.054;8.552;2023-01-24T10:30:28;7.63;;;6.27;;
1691;SDS011;843;52.054;8.552;2023-01-24T10:32:58;8.37;;;6.47;;
1691;SDS011;843;52.054;8.552;2023-01-24T10:35:29;8.10;;;7.20;;
1691;SDS011;843;52.054;8.552;2023-01-24T10:37:58;11.20;;;6.67;;
1691;SDS011;843;52.054;8.552;2023-01-24T10:40:26;10.40;;;8.57;;
1691;SDS011;843;52.054;8.552;2023-01-24T10:42:53;9.27;;;7.60;;
1691;SDS011;843;52.054;8.552;2023-01-24T10:45:24;11.00;;;8.27;;
1691;SDS011;843;52.054;8.552;2023-01-24T10:48:02;10.33;;;7.70;;
1691;SDS011;843;52.054;8.552;2023-01-24T10:50:33;9.70;;;7.67;;
1691;SDS011;843;52.054;8.552;2023-01-24T10:53:11;12.63;;;7.83;;
1691;SDS011;843;52.054;8.552;2023-01-24T10:55:38;11.10;;;8.03;;
1691;SDS011;843;52.054;8.552;2023-01-24T10:58:17;10.43;;;8.03;;
1691;SDS011;843;52.054;8.552;2023-01-24T11:00:47;13.23;;;8.70;;
1691;SDS011;843;52.054;8.552;2023-01-24T11:03:22;10.90;;;8.77;;
1691;SDS011;843;52.054;8.552;2023-01-24T11:05:52;9.63;;;7.90;;
1691;SDS011;843;52.054;8.552;2023-01-24T11:08:20;10.47;;;8.90;;
1691;SDS011;843;52.054;8.552;2023-01-24T11:10:50;10.23;;;7.70;;
1691;SDS011;843;52.054;8.552;2023-01-24T11:13:23;12.30;;;9.80;;
1691;SDS011;843;52.054;8.552;2023-01-24T11:15:54;10.23;;;7.87;;
1691;SDS011;843;52.054;8.552;2023-01-24T11:18:26;10.90;;;7.00;;
1691;SDS011;843;52.054;8.552;2023-01-24T11:21:03;9.13;;;7.50;;
1691;SDS011;843;52.054;8.552;2023-01-24T11:23:31;9.83;;;7.43;;
1691;SDS011;843;52.054;8.552;2023-01-24T11:25:58;11.53;;;8.43;;
1691;SDS011;843;52.054;8.552;2023-01-24T11:28:28;9.57;;;7.97;;
1691;SDS011;843;52.054;8.552;2023-01-24T11:30:58;9.73;;;8.00;;
1691;SDS011;843;52.054;8.552;2023-01-24T11:36:27;9.80;;;7.23;;
1691;SDS011;843;52.054;8.552;2023-01-24T11:39:00;9.57;;;7.30;;
1691;SDS011;843;52.054;8.552;2023-01-24T11:41:30;10.17;;;7.60;;
1691;SDS011;843;52.054;8.552;2023-01-24T11:47:13;9.57;;;6.53;;
1691;SDS011;843;52.054;8.552;2023-01-24T11:49:54;9.67;;;7.97;;
1691;SDS011;843;52.054;8.552;2023-01-24T11:52:50;9.07;;;6.93;;
1691;SDS011;843;52.054;8.552;2023-01-24T11:55:33;11.17;;;8.40;;
1691;SDS011;843;52.054;8.552;2023-01-24T11:58:09;10.27;;;8.00;;
1691;SDS011;843;52.054;8.552;2023-01-24T12:00:46;11.90;;;8.33;;
1691;SDS011;843;52.054;8.552;2023-01-24T12:03:29;10.90;;;8.10;;
1691;SDS011;843;52.054;8.552;2023-01-24T12:06:17;11.97;;;9.17;;
1691;SDS011;843;52.054;8.552;2023-01-24T12:08:55;12.40;;;8.73;;
1691;SDS011;843;52.054;8.552;2023-01-24T12:11:29;12.57;;;9.57;;
1691;SDS011;843;52.054;8.552;2023-01-24T12:14:04;14.17;;;10.10;;
1691;SDS011;843;52.054;8.552;2023-01-24T12:16:43;12.50;;;9.20;;
1691;SDS011;843;52.054;8.552;2023-01-24T12:19:25;12.83;;;9.70;;
1691;SDS011;843;52.054;8.552;2023-01-24T12:22:00;11.13;;;7.90;;
1691;SDS011;843;52.054;8.552;2023-01-24T12:24:30;12.40;;;9.30;;
1691;SDS011;843;52.054;8.552;2023-01-24T12:26:58;12.30;;;9.20;;
1691;SDS011;843;52.054;8.552;2023-01-24T12:29:27;11.30;;;8.73;;
1691;SDS011;843;52.054;8.552;2023-01-24T12:31:56;13.00;;;8.57;;
1691;SDS011;843;52.054;8.552;2023-01-24T12:34:37;14.50;;;9.70;;
1691;SDS011;843;52.054;8.552;2023-01-24T12:37:09;14.00;;;10.53;;
1691;SDS011;843;52.054;8.552;2023-01-24T12:39:41;13.50;;;9.13;;
1691;SDS011;843;52.054;8.552;2023-01-24T12:42:13;15.43;;;10.13;;
1691;SDS011;843;52.054;8.552;2023-01-24T12:44:45;16.37;;;11.07;;
1691;SDS011;843;52.054;8.552;2023-01-24T12:47:27;12.27;;;9.60;;
1691;SDS011;843;52.054;8.552;2023-01-24T12:50:11;13.90;;;10.50;;
1691;SDS011;843;52.054;8.552;2023-01-24T12:52:41;14.03;;;10.10;;
1691;SDS011;843;52.054;8.552;2023-01-24T12:55:12;14.60;;;9.57;;
1691;SDS011;843;52.054;8.552;2023-01-24T12:57:41;12.33;;;9.53;;
1691;SDS011;843;52.054;8.552;2023-01-24T13:00:13;15.40;;;10.60;;
1691;SDS011;843;52.054;8.552;2023-01-24T13:03:00;14.20;;;10.60;;
1691;SDS011;843;52.054;8.552;2023-01-24T13:05:44;12.63;;;10.30;;
1691;SDS011;843;52.054;8.552;2023-01-24T13:08:17;14.57;;;11.10;;
1691;SDS011;843;52.054;8.552;2023-01-24T13:10:51;16.93;;;11.57;;
1691;SDS011;843;52.054;8.552;2023-01-24T13:13:25;15.87;;;10.13;;
1691;SDS011;843;52.054;8.552;2023-01-24T13:15:58;13.97;;;10.60;;
1691;SDS011;843;52.054;8.552;2023-01-24T13:18:35;15.87;;;11.83;;
1691;SDS011;843;52.054;8.552;2023-01-24T13:21:10;15.83;;;10.50;;
1691;SDS011;843;52.054;8.552;2023-01-24T13:23:53;15.43;;;11.20;;
1691;SDS011;843;52.054;8.552;2023-01-24T13:26:28;19.00;;;12.10;;
1691;SDS011;843;52.054;8.552;2023-01-24T13:29:05;16.43;;;11.33;;
1691;SDS011;843;52.054;8.552;2023-01-24T13:31:44;18.20;;;11.83;;
1691;SDS011;843;52.054;8.552;2023-01-24T13:34:15;17.53;;;11.40;;
1691;SDS011;843;52.054;8.552;2023-01-24T13:36:47;17.90;;;12.33;;
1691;SDS011;843;52.054;8.552;2023-01-24T13:39:27;16.20;;;11.60;;
1691;SDS011;843;52.054;8.552;2023-01-24T13:42:00;16.60;;;11.57;;
1691;SDS011;843;52.054;8.552;2023-01-24T13:44:28;17.10;;;11.77;;
1691;SDS011;843;52.054;8.552;2023-01-24T13:50:09;17.57;;;12.27;;
1691;SDS011;843;52.054;8.552;2023-01-24T13:52:39;17.87;;;12.00;;
1691;SDS011;843;52.054;8.552;2023-01-24T13:58:25;16.10;;;11.30;;
1691;SDS011;843;52.054;8.552;2023-01-24T14:00:53;18.37;;;12.30;;
1691;SDS011;843;52.054;8.552;2023-01-24T14:03:22;20.97;;;11.90;;
1691;SDS011;843;52.054;8.552;2023-01-24T14:05:53;18.07;;;12.37;;
1691;SDS011;843;52.054;8.552;2023-01-24T14:08:40;18.33;;;11.13;;
1691;SDS011;843;52.054;8.552;2023-01-24T14:11:16;16.27;;;12.10;;
1691;SDS011;843;52.054;8.552;2023-01-24T14:13:55;15.03;;;11.30;;
1691;SDS011;843;52.054;8.552;2023-01-24T14:19:22;16.40;;;12.63;;
1691;SDS011;843;52.054;8.552;2023-01-24T14:21:54;19.00;;;12.70;;
1691;SDS011;843;52.054;8.552;2023-01-24T14:24:26;16.30;;;11.60;;
1691;SDS011;843;52.054;8.552;2023-01-24T14:26:55;16.57;;;11.20;;
1691;SDS011;843;52.054;8.552;2023-01-24T14:29:26;15.80;;;11.77;;
1691;SDS011;843;52.054;8.552;2023-01-24T14:32:00;19.90;;;12.30;;
1691;SDS011;843;52.054;8.552;2023-01-24T14:34:30;14.03;;;10.73;;
1691;SDS011;843;52.054;8.552;2023-01-24T14:37:02;17.33;;;12.20;;
1691;SDS011;843;52.054;8.552;2023-01-24T14:39:36;16.57;;;11.60;;
1691;SDS011;843;52.054;8.552;2023-01-24T14:42:04;16.60;;;10.90;;
1691;SDS011;843;52.054;8.552;2023-01-24T14:44:33;17.13;;;11.70;;
1691;SDS011;843;52.054;8.552;2023-01-24T14:47:01;16.47;;;11.80;;
1691;SDS011;843;52.054;8.552;2023-01-24T14:49:30;19.93;;;13.33;;
1691;SDS011;843;52.054;8.552;2023-01-24T14:51:58;18.67;;;11.90;;
1691;SDS011;843;52.054;8.552;2023-01-24T14:54:25;20.57;;;14.43;;
1691;SDS011;843;52.054;8.552;2023-01-24T14:56:53;23.17;;;12.70;;
1691;SDS011;843;52.054;8.552;2023-01-24T14:59:20;20.00;;;13.93;;
1691;SDS011;843;52.054;8.552;2023-01-24T15:01:48;18.00;;;12.63;;
1691;SDS011;843;52.054;8.552;2023-01-24T15:04:20;23.63;;;14.03;;
1691;SDS011;843;52.054;8.552;2023-01-24T15:07:02;18.50;;;12.80;;
1691;SDS011;843;52.054;8.552;2023-01-24T15:09:30;18.60;;;12.50;;
1691;SDS011;843;52.054;8.552;2023-01-24T15:12:09;18.97;;;13.57;;
1691;SDS011;843;52.054;8.552;2023-01-24T15:14:40;17.60;;;13.73;;
1691;SDS011;843;52.054;8.552;2023-01-24T15:17:14;21.20;;;13.90;;
1691;SDS011;843;52.054;8.552;2023-01-24T15:19:45;16.80;;;12.43;;
1691;SDS011;843;52.054;8.552;2023-01-24T15:22:17;21.70;;;13.63;;
1691;SDS011;843;52.054;8.552;2023-01-24T15:24:48;17.77;;;12.17;;
1691;SDS011;843;52.054;8.552;2023-01-24T15:27:21;20.53;;;13.60;;
1691;SDS011;843;52.054;8.552;2023-01-24T15:29:51;20.47;;;14.37;;
1691;SDS011;843;52.054;8.552;2023-01-24T15:32:40;19.10;;;13.47;;
1691;SDS011;843;52.054;8.552;2023-01-24T15:35:26;19.53;;;13.30;;
1691;SDS011;843;52.054;8.552;2023-01-24T15:40:50;18.93;;;13.73;;
1691;SDS011;843;52.054;8.552;2023-01-24T15:43:35;19.60;;;14.07;;
1691;SDS011;843;52.054;8.552;2023-01-24T15:46:15;17.67;;;12.40;;
1691;SDS011;843;52.054;8.552;2023-01-24T15:49:04;23.00;;;16.70;;
1691;SDS011;843;52.054;8.552;2023-01-24T15:51:57;19.47;;;13.73;;
1691;SDS011;843;52.054;8.552;2023-01-24T15:54:25;19.47;;;13.50;;